sensor_id;sensor_type;location;lat;lon;timestamp;P1;durP1;ratioP1;P2;durP2;ratioP2
19593;SDS011;9944;48.240;16.478;2023-04-25T00:03:22;1.10;;;1.05;;
19593;SDS011;9944;48.240;16.478;2023-04-25T00:07:26;1.60;;;1.20;;
19593;SDS011;9944;48.240;16.478;2023-04-25T00:11:30;1.48;;;1.08;;
19593;SDS011;9944;48.240;16.478;2023-04-25T00:15:34;1.30;;;1.20;;
19593;SDS011;9944;48.240;16.478;2023-04-25T00:19:39;1.42;;;1.17;;
19593;SDS011;9944;48.240;16.478;2023-04-25T00:23:42;1.30;;;1.13;;
19593;SDS011;9944;48.240;16.478;2023-04-25T00:27:47;2.38;;;1.25;;
19593;SDS011;9944;48.240;16.478;2023-04-25T00:31:51;2.05;;;1.27;;
19593;SDS011;9944;48.240;16.478;2023-04-25T00:35:55;1.13;;;1.00;;
19593;SDS011;9944;48.240;16.478;2023-04-25T00:39:58;2.28;;;1.27;;
19593;SDS011;9944;48.240;16.478;2023-04-25T00:44:01;1.48;;;1.17;;
19593;SDS011;9944;48.240;16.478;2023-04-25T00:48:07;1.17;;;1.00;;
19593;SDS011;9944;48.240;16.478;2023-04-25T00:52:10;1.20;;;1.10;;
19593;SDS011;9944;48.240;16.478;2023-04-25T00:56:13;1.50;;;1.20;;
19593;SDS011;9944;48.240;16.478;2023-04-25T01:00:17;1.35;;;1.10;;
19593;SDS011;9944;48.240;16.478;2023-04-25T01:04:23;1.27;;;1.17;;
19593;SDS011;9944;48.240;16.478;2023-04-25T01:08:27;1.25;;;1.10;;
19593;SDS011;9944;48.240;16.478;2023-04-25T01:12:30;1.15;;;1.02;;
19593;SDS011;9944;48.240;16.478;2023-04-25T01:16:34;1.30;;;1.20;;
19593;SDS011;9944;48.240;16.478;2023-04-25T01:20:39;2.60;;;1.30;;
19593;SDS011;9944;48.240;16.478;2023-04-25T01:24:46;2.10;;;1.20;;
19593;SDS011;9944;48.240;16.478;2023-04-25T01:28:49;1.60;;;1.20;;
19593;SDS011;9944;48.240;16.478;2023-04-25T01:32:54;1.70;;;1.25;;
19593;SDS011;9944;48.240;16.478;2023-04-25T01:36:59;1.73;;;1.27;;
19593;SDS011;9944;48.240;16.478;2023-04-25T01:41:04;1.83;;;1.40;;
19593;SDS011;9944;48.240;16.478;2023-04-25T01:45:08;1.30;;;1.20;;
19593;SDS011;9944;48.240;16.478;2023-04-25T01:49:12;2.22;;;1.58;;
19593;SDS011;9944;48.240;16.478;2023-04-25T01:53:17;1.73;;;1.30;;
19593;SDS011;9944;48.240;16.478;2023-04-25T01:57:22;2.33;;;1.38;;
19593;SDS011;9944;48.240;16.478;2023-04-25T02:01:27;2.25;;;1.35;;
19593;SDS011;9944;48.240;16.478;2023-04-25T02:05:46;1.52;;;1.23;;
19593;SDS011;9944;48.240;16.478;2023-04-25T02:09:51;1.95;;;1.52;;
19593;SDS011;9944;48.240;16.478;2023-04-25T02:13:58;2.13;;;1.33;;
19593;SDS011;9944;48.240;16.478;2023-04-25T02:18:15;2.22;;;1.50;;
19593;SDS011;9944;48.240;16.478;2023-04-25T02:22:18;1.63;;;1.40;;
19593;SDS011;9944;48.240;16.478;2023-04-25T02:26:22;1.90;;;1.60;;
19593;SDS011;9944;48.240;16.478;2023-04-25T02:30:27;1.55;;;1.30;;
19593;SDS011;9944;48.240;16.478;2023-04-25T02:34:30;4.82;;;1.50;;
19593;SDS011;9944;48.240;16.478;2023-04-25T02:38:34;1.65;;;1.33;;
19593;SDS011;9944;48.240;16.478;2023-04-25T02:42:38;1.33;;;1.23;;
19593;SDS011;9944;48.240;16.478;2023-04-25T02:46:43;1.85;;;1.40;;
19593;SDS011;9944;48.240;16.478;2023-04-25T02:50:46;1.98;;;1.45;;
19593;SDS011;9944;48.240;16.478;2023-04-25T02:54:49;2.22;;;1.30;;
19593;SDS011;9944;48.240;16.478;2023-04-25T02:58:52;1.88;;;1.50;;
19593;SDS011;9944;48.240;16.478;2023-04-25T03:02:57;2.60;;;1.58;;
19593;SDS011;9944;48.240;16.478;2023-04-25T03:07:00;1.95;;;1.45;;
19593;SDS011;9944;48.240;16.478;2023-04-25T03:11:04;1.50;;;1.38;;
19593;SDS011;9944;48.240;16.478;2023-04-25T03:15:07;1.80;;;1.42;;
19593;SDS011;9944;48.240;16.478;2023-04-25T03:19:12;1.92;;;1.55;;
19593;SDS011;9944;48.240;16.478;2023-04-25T03:23:17;1.52;;;1.30;;
19593;SDS011;9944;48.240;16.478;2023-04-25T03:27:20;1.90;;;1.60;;
19593;SDS011;9944;48.240;16.478;2023-04-25T03:31:23;2.38;;;1.70;;
19593;SDS011;9944;48.240;16.478;2023-04-25T03:35:29;2.05;;;1.60;;
19593;SDS011;9944;48.240;16.478;2023-04-25T03:39:32;1.60;;;1.50;;
19593;SDS011;9944;48.240;16.478;2023-04-25T03:43:35;1.92;;;1.60;;
19593;SDS011;9944;48.240;16.478;2023-04-25T03:47:44;2.38;;;1.50;;
19593;SDS011;9944;48.240;16.478;2023-04-25T03:51:48;2.83;;;1.70;;
19593;SDS011;9944;48.240;16.478;2023-04-25T03:55:52;2.17;;;1.90;;
19593;SDS011;9944;48.240;16.478;2023-04-25T03:59:55;2.83;;;1.77;;
19593;SDS011;9944;48.240;16.478;2023-04-25T04:03:59;1.58;;;1.40;;
19593;SDS011;9944;48.240;16.478;2023-04-25T04:08:05;2.35;;;1.55;;
19593;SDS011;9944;48.240;16.478;2023-04-25T04:12:09;2.85;;;1.65;;
19593;SDS011;9944;48.240;16.478;2023-04-25T04:16:14;2.30;;;1.50;;
19593;SDS011;9944;48.240;16.478;2023-04-25T04:20:18;2.28;;;1.70;;
19593;SDS011;9944;48.240;16.478;2023-04-25T04:24:24;2.00;;;1.60;;
19593;SDS011;9944;48.240;16.478;2023-04-25T04:28:33;2.97;;;1.52;;
19593;SDS011;9944;48.240;16.478;2023-04-25T04:32:52;1.65;;;1.50;;
19593;SDS011;9944;48.240;16.478;2023-04-25T04:36:56;2.60;;;1.60;;
19593;SDS011;9944;48.240;16.478;2023-04-25T04:41:00;2.65;;;1.90;;
19593;SDS011;9944;48.240;16.478;2023-04-25T04:45:27;3.10;;;1.80;;
19593;SDS011;9944;48.240;16.478;2023-04-25T04:49:53;2.42;;;1.77;;
19593;SDS011;9944;48.240;16.478;2023-04-25T04:54:17;3.22;;;1.65;;
19593;SDS011;9944;48.240;16.478;2023-04-25T04:58:51;3.10;;;1.88;;
19593;SDS011;9944;48.240;16.478;2023-04-25T05:03:14;1.85;;;1.63;;
19593;SDS011;9944;48.240;16.478;2023-04-25T05:07:36;2.65;;;2.22;;
19593;SDS011;9944;48.240;16.478;2023-04-25T05:12:00;3.00;;;2.00;;
19593;SDS011;9944;48.240;16.478;2023-04-25T05:16:14;4.10;;;2.33;;
19593;SDS011;9944;48.240;16.478;2023-04-25T05:20:30;2.55;;;1.90;;
19593;SDS011;9944;48.240;16.478;2023-04-25T05:24:59;3.38;;;2.00;;
19593;SDS011;9944;48.240;16.478;2023-04-25T05:29:21;3.17;;;1.90;;
19593;SDS011;9944;48.240;16.478;2023-04-25T05:33:57;2.78;;;2.05;;
19593;SDS011;9944;48.240;16.478;2023-04-25T05:38:13;2.47;;;2.20;;
19593;SDS011;9944;48.240;16.478;2023-04-25T05:42:48;3.35;;;2.05;;
19593;SDS011;9944;48.240;16.478;2023-04-25T05:47:21;4.53;;;2.22;;
19593;SDS011;9944;48.240;16.478;2023-04-25T05:52:01;3.17;;;2.60;;
19593;SDS011;9944;48.240;16.478;2023-04-25T05:56:16;4.72;;;2.45;;
19593;SDS011;9944;48.240;16.478;2023-04-25T06:00:21;2.75;;;2.13;;
19593;SDS011;9944;48.240;16.478;2023-04-25T06:04:25;2.85;;;2.20;;
19593;SDS011;9944;48.240;16.478;2023-04-25T06:08:30;2.75;;;2.00;;
19593;SDS011;9944;48.240;16.478;2023-04-25T06:12:34;2.78;;;2.40;;
19593;SDS011;9944;48.240;16.478;2023-04-25T06:16:38;2.25;;;1.80;;
19593;SDS011;9944;48.240;16.478;2023-04-25T06:20:41;2.85;;;2.20;;
19593;SDS011;9944;48.240;16.478;2023-04-25T06:24:46;2.35;;;2.08;;
19593;SDS011;9944;48.240;16.478;2023-04-25T06:28:49;3.70;;;2.08;;
19593;SDS011;9944;48.240;16.478;2023-04-25T06:32:52;2.50;;;2.00;;
19593;SDS011;9944;48.240;16.478;2023-04-25T06:36:56;2.55;;;1.80;;
19593;SDS011;9944;48.240;16.478;2023-04-25T06:41:01;4.45;;;2.20;;
19593;SDS011;9944;48.240;16.478;2023-04-25T06:45:08;2.53;;;2.00;;
19593;SDS011;9944;48.240;16.478;2023-04-25T06:49:12;3.03;;;2.22;;
19593;SDS011;9944;48.240;16.478;2023-04-25T06:53:16;2.65;;;1.90;;
19593;SDS011;9944;48.240;16.478;2023-04-25T06:57:25;3.05;;;1.95;;
19593;SDS011;9944;48.240;16.478;2023-04-25T07:01:32;4.13;;;1.80;;
19593;SDS011;9944;48.240;16.478;2023-04-25T07:05:40;2.28;;;2.00;;
19593;SDS011;9944;48.240;16.478;2023-04-25T07:09:44;2.90;;;1.80;;
19593;SDS011;9944;48.240;16.478;2023-04-25T07:13:48;2.35;;;1.90;;
19593;SDS011;9944;48.240;16.478;2023-04-25T07:17:51;4.72;;;2.45;;
19593;SDS011;9944;48.240;16.478;2023-04-25T07:21:55;2.13;;;1.90;;
19593;SDS011;9944;48.240;16.478;2023-04-25T07:25:58;4.22;;;2.88;;
19593;SDS011;9944;48.240;16.478;2023-04-25T07:30:05;3.55;;;2.10;;
19593;SDS011;9944;48.240;16.478;2023-04-25T07:34:09;2.65;;;2.10;;
19593;SDS011;9944;48.240;16.478;2023-04-25T07:38:13;2.45;;;2.13;;
19593;SDS011;9944;48.240;16.478;2023-04-25T07:42:16;2.05;;;1.75;;
19593;SDS011;9944;48.240;16.478;2023-04-25T07:46:20;3.03;;;2.22;;
19593;SDS011;9944;48.240;16.478;2023-04-25T07:50:24;2.58;;;2.00;;
19593;SDS011;9944;48.240;16.478;2023-04-25T07:54:27;2.92;;;1.73;;
19593;SDS011;9944;48.240;16.478;2023-04-25T07:58:37;2.88;;;1.95;;
19593;SDS011;9944;48.240;16.478;2023-04-25T08:02:45;2.90;;;2.00;;
19593;SDS011;9944;48.240;16.478;2023-04-25T08:06:51;3.70;;;2.00;;
19593;SDS011;9944;48.240;16.478;2023-04-25T08:10:59;3.72;;;2.25;;
19593;SDS011;9944;48.240;16.478;2023-04-25T08:15:03;2.88;;;2.20;;
19593;SDS011;9944;48.240;16.478;2023-04-25T08:19:12;2.13;;;1.75;;
19593;SDS011;9944;48.240;16.478;2023-04-25T08:23:15;2.35;;;1.90;;
19593;SDS011;9944;48.240;16.478;2023-04-25T08:27:27;4.00;;;2.30;;
19593;SDS011;9944;48.240;16.478;2023-04-25T08:31:30;1.90;;;1.70;;
19593;SDS011;9944;48.240;16.478;2023-04-25T08:35:38;2.40;;;2.00;;
19593;SDS011;9944;48.240;16.478;2023-04-25T08:39:41;4.57;;;1.95;;
19593;SDS011;9944;48.240;16.478;2023-04-25T08:43:49;3.45;;;1.90;;
19593;SDS011;9944;48.240;16.478;2023-04-25T08:47:54;2.55;;;2.00;;
19593;SDS011;9944;48.240;16.478;2023-04-25T08:52:01;2.20;;;1.85;;
19593;SDS011;9944;48.240;16.478;2023-04-25T08:56:08;2.58;;;2.17;;
19593;SDS011;9944;48.240;16.478;2023-04-25T09:00:14;2.65;;;2.00;;
19593;SDS011;9944;48.240;16.478;2023-04-25T09:04:20;1.90;;;1.60;;
19593;SDS011;9944;48.240;16.478;2023-04-25T09:08:25;2.75;;;1.80;;
19593;SDS011;9944;48.240;16.478;2023-04-25T09:12:29;2.33;;;1.90;;
19593;SDS011;9944;48.240;16.478;2023-04-25T09:16:33;4.10;;;2.35;;
19593;SDS011;9944;48.240;16.478;2023-04-25T09:21:07;2.83;;;2.40;;
19593;SDS011;9944;48.240;16.478;2023-04-25T09:25:19;2.97;;;2.20;;
19593;SDS011;9944;48.240;16.478;2023-04-25T09:29:28;3.53;;;2.08;;
19593;SDS011;9944;48.240;16.478;2023-04-25T09:33:33;2.28;;;2.05;;
19593;SDS011;9944;48.240;16.478;2023-04-25T09:37:39;3.90;;;2.17;;
19593;SDS011;9944;48.240;16.478;2023-04-25T09:42:04;2.60;;;1.90;;
19593;SDS011;9944;48.240;16.478;2023-04-25T09:46:09;2.70;;;1.83;;
19593;SDS011;9944;48.240;16.478;2023-04-25T09:50:18;2.35;;;1.90;;
19593;SDS011;9944;48.240;16.478;2023-04-25T09:54:26;3.45;;;2.35;;
19593;SDS011;9944;48.240;16.478;2023-04-25T09:58:43;3.60;;;2.20;;
19593;SDS011;9944;48.240;16.478;2023-04-25T10:02:46;2.25;;;1.85;;
19593;SDS011;9944;48.240;16.478;2023-04-25T10:07:13;1.77;;;1.60;;
19593;SDS011;9944;48.240;16.478;2023-04-25T10:11:19;1.90;;;1.40;;
19593;SDS011;9944;48.240;16.478;2023-04-25T10:15:26;1.50;;;1.20;;
19593;SDS011;9944;48.240;16.478;2023-04-25T10:19:31;1.35;;;1.20;;
19593;SDS011;9944;48.240;16.478;2023-04-25T10:23:34;1.15;;;1.00;;
19593;SDS011;9944;48.240;16.478;2023-04-25T10:27:39;1.20;;;1.10;;
19593;SDS011;9944;48.240;16.478;2023-04-25T10:31:47;1.42;;;1.10;;
19593;SDS011;9944;48.240;16.478;2023-04-25T10:35:50;1.13;;;1.02;;
19593;SDS011;9944;48.240;16.478;2023-04-25T10:39:53;1.10;;;1.00;;
19593;SDS011;9944;48.240;16.478;2023-04-25T10:43:59;1.88;;;1.00;;
19593;SDS011;9944;48.240;16.478;2023-04-25T10:48:05;2.75;;;1.20;;
19593;SDS011;9944;48.240;16.478;2023-04-25T10:52:28;2.55;;;1.30;;
19593;SDS011;9944;48.240;16.478;2023-04-25T10:56:31;2.25;;;1.15;;
19593;SDS011;9944;48.240;16.478;2023-04-25T11:00:35;1.52;;;1.23;;
19593;SDS011;9944;48.240;16.478;2023-04-25T11:04:58;2.15;;;1.35;;
19593;SDS011;9944;48.240;16.478;2023-04-25T11:09:03;1.48;;;1.10;;
19593;SDS011;9944;48.240;16.478;2023-04-25T11:13:15;1.10;;;1.00;;
19593;SDS011;9944;48.240;16.478;2023-04-25T11:17:18;3.55;;;1.45;;
19593;SDS011;9944;48.240;16.478;2023-04-25T11:21:22;2.58;;;1.20;;
19593;SDS011;9944;48.240;16.478;2023-04-25T11:25:26;2.20;;;1.50;;
19593;SDS011;9944;48.240;16.478;2023-04-25T11:29:29;3.17;;;1.20;;
19593;SDS011;9944;48.240;16.478;2023-04-25T11:33:33;1.38;;;1.27;;
19593;SDS011;9944;48.240;16.478;2023-04-25T11:37:38;2.30;;;1.10;;
19593;SDS011;9944;48.240;16.478;2023-04-25T11:41:42;2.55;;;1.52;;
19593;SDS011;9944;48.240;16.478;2023-04-25T11:45:48;2.17;;;1.63;;
19593;SDS011;9944;48.240;16.478;2023-04-25T11:49:52;1.63;;;1.50;;
19593;SDS011;9944;48.240;16.478;2023-04-25T11:53:57;1.67;;;1.40;;
19593;SDS011;9944;48.240;16.478;2023-04-25T11:58:00;1.92;;;1.48;;
19593;SDS011;9944;48.240;16.478;2023-04-25T12:02:03;2.83;;;0.98;;
19593;SDS011;9944;48.240;16.478;2023-04-25T12:06:08;1.75;;;1.10;;
19593;SDS011;9944;48.240;16.478;2023-04-25T12:10:14;2.15;;;0.90;;
19593;SDS011;9944;48.240;16.478;2023-04-25T12:14:21;0.95;;;0.88;;
19593;SDS011;9944;48.240;16.478;2023-04-25T12:18:26;0.90;;;0.77;;
19593;SDS011;9944;48.240;16.478;2023-04-25T12:22:29;1.00;;;0.90;;
19593;SDS011;9944;48.240;16.478;2023-04-25T12:26:46;1.08;;;0.98;;
19593;SDS011;9944;48.240;16.478;2023-04-25T12:30:57;1.05;;;0.90;;
19593;SDS011;9944;48.240;16.478;2023-04-25T12:35:02;1.10;;;1.00;;
19593;SDS011;9944;48.240;16.478;2023-04-25T12:39:06;1.48;;;1.00;;
19593;SDS011;9944;48.240;16.478;2023-04-25T12:43:10;1.70;;;0.88;;
19593;SDS011;9944;48.240;16.478;2023-04-25T12:47:13;1.65;;;0.88;;
19593;SDS011;9944;48.240;16.478;2023-04-25T12:51:16;0.82;;;0.80;;
19593;SDS011;9944;48.240;16.478;2023-04-25T12:55:19;2.28;;;0.90;;
19593;SDS011;9944;48.240;16.478;2023-04-25T12:59:24;2.35;;;0.98;;
19593;SDS011;9944;48.240;16.478;2023-04-25T13:03:28;0.80;;;0.80;;
19593;SDS011;9944;48.240;16.478;2023-04-25T13:07:31;1.10;;;1.00;;
19593;SDS011;9944;48.240;16.478;2023-04-25T13:11:36;0.90;;;0.90;;
19593;SDS011;9944;48.240;16.478;2023-04-25T13:15:40;1.20;;;1.00;;
19593;SDS011;9944;48.240;16.478;2023-04-25T13:19:43;0.75;;;0.75;;
19593;SDS011;9944;48.240;16.478;2023-04-25T13:23:47;1.60;;;1.10;;
19593;SDS011;9944;48.240;16.478;2023-04-25T13:27:50;1.67;;;0.93;;
19593;SDS011;9944;48.240;16.478;2023-04-25T13:31:54;1.92;;;0.98;;
19593;SDS011;9944;48.240;16.478;2023-04-25T13:35:58;0.82;;;0.82;;
19593;SDS011;9944;48.240;16.478;2023-04-25T13:40:01;1.00;;;0.90;;
19593;SDS011;9944;48.240;16.478;2023-04-25T13:44:06;0.85;;;0.80;;
19593;SDS011;9944;48.240;16.478;2023-04-25T13:48:11;1.00;;;0.90;;
19593;SDS011;9944;48.240;16.478;2023-04-25T13:52:14;1.35;;;0.70;;
19593;SDS011;9944;48.240;16.478;2023-04-25T13:56:17;1.10;;;1.00;;
19593;SDS011;9944;48.240;16.478;2023-04-25T14:00:21;0.73;;;0.70;;
19593;SDS011;9944;48.240;16.478;2023-04-25T14:04:26;0.80;;;0.80;;
19593;SDS011;9944;48.240;16.478;2023-04-25T14:08:29;1.02;;;0.80;;
19593;SDS011;9944;48.240;16.478;2023-04-25T14:12:32;1.58;;;1.10;;
19593;SDS011;9944;48.240;16.478;2023-04-25T14:16:35;1.58;;;1.10;;
19593;SDS011;9944;48.240;16.478;2023-04-25T14:20:40;1.52;;;1.10;;
19593;SDS011;9944;48.240;16.478;2023-04-25T14:24:43;1.90;;;1.40;;
19593;SDS011;9944;48.240;16.478;2023-04-25T14:28:46;2.28;;;1.40;;
19593;SDS011;9944;48.240;16.478;2023-04-25T14:32:49;1.45;;;1.27;;
19593;SDS011;9944;48.240;16.478;2023-04-25T14:36:53;2.17;;;1.10;;
19593;SDS011;9944;48.240;16.478;2023-04-25T14:40:56;1.40;;;1.20;;
19593;SDS011;9944;48.240;16.478;2023-04-25T14:44:59;2.80;;;1.70;;
19593;SDS011;9944;48.240;16.478;2023-04-25T14:49:02;1.50;;;1.30;;
19593;SDS011;9944;48.240;16.478;2023-04-25T14:53:07;1.92;;;1.30;;
19593;SDS011;9944;48.240;16.478;2023-04-25T14:57:10;2.22;;;1.65;;
19593;SDS011;9944;48.240;16.478;2023-04-25T15:01:13;2.25;;;1.33;;
19593;SDS011;9944;48.240;16.478;2023-04-25T15:05:17;0.98;;;0.90;;
19593;SDS011;9944;48.240;16.478;2023-04-25T15:09:22;1.08;;;0.90;;
19593;SDS011;9944;48.240;16.478;2023-04-25T15:13:25;1.27;;;0.95;;
19593;SDS011;9944;48.240;16.478;2023-04-25T15:17:28;0.98;;;0.82;;
19593;SDS011;9944;48.240;16.478;2023-04-25T15:21:32;1.50;;;1.23;;
19593;SDS011;9944;48.240;16.478;2023-04-25T15:25:37;1.70;;;1.20;;
19593;SDS011;9944;48.240;16.478;2023-04-25T15:29:40;1.20;;;1.10;;
19593;SDS011;9944;48.240;16.478;2023-04-25T15:33:43;1.30;;;1.00;;
19593;SDS011;9944;48.240;16.478;2023-04-25T15:37:46;2.45;;;1.00;;
19593;SDS011;9944;48.240;16.478;2023-04-25T15:41:50;1.00;;;0.90;;
19593;SDS011;9944;48.240;16.478;2023-04-25T15:45:53;1.02;;;0.85;;
19593;SDS011;9944;48.240;16.478;2023-04-25T15:49:57;0.85;;;0.85;;
19593;SDS011;9944;48.240;16.478;2023-04-25T15:54:01;1.25;;;1.00;;
19593;SDS011;9944;48.240;16.478;2023-04-25T15:58:06;0.63;;;0.63;;
19593;SDS011;9944;48.240;16.478;2023-04-25T16:02:12;0.90;;;0.77;;
19593;SDS011;9944;48.240;16.478;2023-04-25T16:06:16;1.38;;;1.00;;
19593;SDS011;9944;48.240;16.478;2023-04-25T16:10:19;0.80;;;0.80;;
19593;SDS011;9944;48.240;16.478;2023-04-25T16:14:24;0.68;;;0.65;;
19593;SDS011;9944;48.240;16.478;2023-04-25T16:18:27;0.75;;;0.70;;
19593;SDS011;9944;48.240;16.478;2023-04-25T16:22:30;0.63;;;0.63;;
19593;SDS011;9944;48.240;16.478;2023-04-25T16:26:34;1.95;;;0.93;;
19593;SDS011;9944;48.240;16.478;2023-04-25T16:30:38;1.08;;;0.88;;
19593;SDS011;9944;48.240;16.478;2023-04-25T16:34:41;1.83;;;0.80;;
19593;SDS011;9944;48.240;16.478;2023-04-25T16:38:45;1.38;;;1.00;;
19593;SDS011;9944;48.240;16.478;2023-04-25T16:42:48;0.80;;;0.80;;
19593;SDS011;9944;48.240;16.478;2023-04-25T16:46:52;0.70;;;0.70;;
19593;SDS011;9944;48.240;16.478;2023-04-25T16:50:55;1.10;;;0.90;;
19593;SDS011;9944;48.240;16.478;2023-04-25T16:54:58;1.13;;;0.95;;
19593;SDS011;9944;48.240;16.478;2023-04-25T16:59:01;1.00;;;0.80;;
19593;SDS011;9944;48.240;16.478;2023-04-25T17:03:06;1.80;;;0.75;;
19593;SDS011;9944;48.240;16.478;2023-04-25T17:07:09;2.30;;;0.70;;
19593;SDS011;9944;48.240;16.478;2023-04-25T17:11:12;1.30;;;1.00;;
19593;SDS011;9944;48.240;16.478;2023-04-25T17:15:16;1.33;;;0.95;;
19593;SDS011;9944;48.240;16.478;2023-04-25T17:19:20;2.53;;;0.80;;
19593;SDS011;9944;48.240;16.478;2023-04-25T17:23:24;0.73;;;0.70;;
19593;SDS011;9944;48.240;16.478;2023-04-25T17:27:27;1.35;;;0.90;;
19593;SDS011;9944;48.240;16.478;2023-04-25T17:31:30;0.95;;;0.90;;
19593;SDS011;9944;48.240;16.478;2023-04-25T17:35:35;1.00;;;0.90;;
19593;SDS011;9944;48.240;16.478;2023-04-25T17:39:38;1.42;;;1.00;;
19593;SDS011;9944;48.240;16.478;2023-04-25T17:43:41;0.98;;;0.85;;
19593;SDS011;9944;48.240;16.478;2023-04-25T17:47:44;1.13;;;1.00;;
19593;SDS011;9944;48.240;16.478;2023-04-25T17:51:48;1.02;;;0.95;;
19593;SDS011;9944;48.240;16.478;2023-04-25T17:55:51;1.45;;;1.02;;
19593;SDS011;9944;48.240;16.478;2023-04-25T17:59:54;1.30;;;1.10;;
19593;SDS011;9944;48.240;16.478;2023-04-25T18:03:58;2.08;;;1.10;;
19593;SDS011;9944;48.240;16.478;2023-04-25T18:08:05;1.30;;;1.05;;
19593;SDS011;9944;48.240;16.478;2023-04-25T18:12:08;1.30;;;1.10;;
19593;SDS011;9944;48.240;16.478;2023-04-25T18:16:12;1.25;;;1.10;;
19593;SDS011;9944;48.240;16.478;2023-04-25T18:20:15;1.48;;;1.30;;
19593;SDS011;9944;48.240;16.478;2023-04-25T18:24:21;2.03;;;1.10;;
19593;SDS011;9944;48.240;16.478;2023-04-25T18:28:27;3.53;;;1.10;;
19593;SDS011;9944;48.240;16.478;2023-04-25T18:32:30;1.52;;;1.10;;
19593;SDS011;9944;48.240;16.478;2023-04-25T18:36:33;1.25;;;1.13;;
19593;SDS011;9944;48.240;16.478;2023-04-25T18:40:38;2.08;;;1.15;;
19593;SDS011;9944;48.240;16.478;2023-04-25T18:44:57;1.10;;;1.00;;
19593;SDS011;9944;48.240;16.478;2023-04-25T18:49:00;1.42;;;1.10;;
19593;SDS011;9944;48.240;16.478;2023-04-25T18:53:03;1.10;;;0.93;;
19593;SDS011;9944;48.240;16.478;2023-04-25T18:57:07;1.00;;;0.90;;
19593;SDS011;9944;48.240;16.478;2023-04-25T19:01:12;1.25;;;1.00;;
19593;SDS011;9944;48.240;16.478;2023-04-25T19:05:15;2.33;;;1.02;;
19593;SDS011;9944;48.240;16.478;2023-04-25T19:09:18;1.20;;;1.00;;
19593;SDS011;9944;48.240;16.478;2023-04-25T19:13:23;0.98;;;0.90;;
19593;SDS011;9944;48.240;16.478;2023-04-25T19:17:26;1.20;;;0.82;;
19593;SDS011;9944;48.240;16.478;2023-04-25T19:21:31;0.90;;;0.85;;
19593;SDS011;9944;48.240;16.478;2023-04-25T19:25:35;1.10;;;1.00;;
19593;SDS011;9944;48.240;16.478;2023-04-25T19:29:39;1.08;;;0.90;;
19593;SDS011;9944;48.240;16.478;2023-04-25T19:33:46;1.38;;;1.00;;
19593;SDS011;9944;48.240;16.478;2023-04-25T19:37:49;1.00;;;0.90;;
19593;SDS011;9944;48.240;16.478;2023-04-25T19:41:52;0.82;;;0.70;;
19593;SDS011;9944;48.240;16.478;2023-04-25T19:45:58;1.02;;;0.85;;
19593;SDS011;9944;48.240;16.478;2023-04-25T19:50:02;1.00;;;0.90;;
19593;SDS011;9944;48.240;16.478;2023-04-25T19:54:05;0.93;;;0.82;;
19593;SDS011;9944;48.240;16.478;2023-04-25T19:58:08;1.00;;;0.90;;
19593;SDS011;9944;48.240;16.478;2023-04-25T20:02:12;1.23;;;1.00;;
19593;SDS011;9944;48.240;16.478;2023-04-25T20:06:16;0.88;;;0.85;;
19593;SDS011;9944;48.240;16.478;2023-04-25T20:10:19;1.02;;;0.93;;
19593;SDS011;9944;48.240;16.478;2023-04-25T20:14:23;1.00;;;0.90;;
19593;SDS011;9944;48.240;16.478;2023-04-25T20:18:27;0.98;;;0.80;;
19593;SDS011;9944;48.240;16.478;2023-04-25T20:22:31;1.33;;;1.20;;
19593;SDS011;9944;48.240;16.478;2023-04-25T20:26:37;1.75;;;1.15;;
19593;SDS011;9944;48.240;16.478;2023-04-25T20:30:40;1.42;;;1.33;;
19593;SDS011;9944;48.240;16.478;2023-04-25T20:34:44;1.58;;;1.20;;
19593;SDS011;9944;48.240;16.478;2023-04-25T20:38:48;1.75;;;0.95;;
19593;SDS011;9944;48.240;16.478;2023-04-25T20:42:52;1.42;;;1.30;;
19593;SDS011;9944;48.240;16.478;2023-04-25T20:46:56;1.60;;;1.40;;
19593;SDS011;9944;48.240;16.478;2023-04-25T20:51:00;1.83;;;1.40;;
19593;SDS011;9944;48.240;16.478;2023-04-25T20:55:04;1.38;;;1.20;;
19593;SDS011;9944;48.240;16.478;2023-04-25T20:59:08;2.13;;;1.40;;
19593;SDS011;9944;48.240;16.478;2023-04-25T21:03:12;1.88;;;1.45;;
19593;SDS011;9944;48.240;16.478;2023-04-25T21:07:18;4.28;;;1.65;;
19593;SDS011;9944;48.240;16.478;2023-04-25T21:11:21;1.92;;;1.73;;
19593;SDS011;9944;48.240;16.478;2023-04-25T21:15:25;2.17;;;1.75;;
19593;SDS011;9944;48.240;16.478;2023-04-25T21:19:28;2.47;;;1.90;;
19593;SDS011;9944;48.240;16.478;2023-04-25T21:23:33;2.72;;;2.05;;
19593;SDS011;9944;48.240;16.478;2023-04-25T21:27:37;1.83;;;1.63;;
19593;SDS011;9944;48.240;16.478;2023-04-25T21:31:40;2.05;;;1.77;;
19593;SDS011;9944;48.240;16.478;2023-04-25T21:35:44;2.25;;;1.88;;
19593;SDS011;9944;48.240;16.478;2023-04-25T21:39:48;2.30;;;1.70;;
19593;SDS011;9944;48.240;16.478;2023-04-25T21:43:51;1.48;;;1.38;;
19593;SDS011;9944;48.240;16.478;2023-04-25T21:47:55;1.92;;;1.60;;
19593;SDS011;9944;48.240;16.478;2023-04-25T21:51:58;2.75;;;1.77;;
19593;SDS011;9944;48.240;16.478;2023-04-25T21:56:02;3.72;;;2.15;;
19593;SDS011;9944;48.240;16.478;2023-04-25T22:00:06;2.35;;;1.75;;
19593;SDS011;9944;48.240;16.478;2023-04-25T22:04:21;2.65;;;1.70;;
19593;SDS011;9944;48.240;16.478;2023-04-25T22:08:24;1.83;;;1.55;;
19593;SDS011;9944;48.240;16.478;2023-04-25T22:12:28;1.80;;;1.48;;
19593;SDS011;9944;48.240;16.478;2023-04-25T22:16:32;1.73;;;1.50;;
19593;SDS011;9944;48.240;16.478;2023-04-25T22:20:35;1.75;;;1.65;;
19593;SDS011;9944;48.240;16.478;2023-04-25T22:24:39;2.88;;;1.52;;
19593;SDS011;9944;48.240;16.478;2023-04-25T22:28:44;2.85;;;1.77;;
19593;SDS011;9944;48.240;16.478;2023-04-25T22:32:47;2.10;;;1.73;;
19593;SDS011;9944;48.240;16.478;2023-04-25T22:36:50;3.97;;;2.03;;
19593;SDS011;9944;48.240;16.478;2023-04-25T22:40:53;4.43;;;2.40;;
19593;SDS011;9944;48.240;16.478;2023-04-25T22:44:58;3.42;;;2.70;;
19593;SDS011;9944;48.240;16.478;2023-04-25T22:49:01;5.03;;;3.22;;
19593;SDS011;9944;48.240;16.478;2023-04-25T22:53:05;4.85;;;3.17;;
19593;SDS011;9944;48.240;16.478;2023-04-25T22:57:08;3.95;;;2.88;;
19593;SDS011;9944;48.240;16.478;2023-04-25T23:01:12;4.38;;;3.38;;
19593;SDS011;9944;48.240;16.478;2023-04-25T23:05:19;5.95;;;3.35;;
19593;SDS011;9944;48.240;16.478;2023-04-25T23:09:24;5.53;;;3.70;;
19593;SDS011;9944;48.240;16.478;2023-04-25T23:13:28;4.43;;;3.28;;
19593;SDS011;9944;48.240;16.478;2023-04-25T23:17:33;5.15;;;3.63;;
19593;SDS011;9944;48.240;16.478;2023-04-25T23:21:37;3.80;;;3.00;;
19593;SDS011;9944;48.240;16.478;2023-04-25T23:25:40;5.03;;;3.28;;
19593;SDS011;9944;48.240;16.478;2023-04-25T23:29:48;3.45;;;3.00;;
19593;SDS011;9944;48.240;16.478;2023-04-25T23:33:56;5.63;;;3.20;;
19593;SDS011;9944;48.240;16.478;2023-04-25T23:37:59;4.55;;;3.25;;
19593;SDS011;9944;48.240;16.478;2023-04-25T23:42:02;5.07;;;3.38;;
19593;SDS011;9944;48.240;16.478;2023-04-25T23:46:08;5.05;;;3.55;;
19593;SDS011;9944;48.240;16.478;2023-04-25T23:50:14;6.68;;;3.67;;
19593;SDS011;9944;48.240;16.478;2023-04-25T23:54:17;5.88;;;3.40;;
19593;SDS011;9944;48.240;16.478;2023-04-25T23:58:20;5.45;;;3.58;;
